ePrivacy and GPDR Cookie Consent by Cookie Consent
EmailTwitter


Observations de surface / Québec / CYUL (71627)

Régions: Québec | Canada | États-Unis | Europe | France | UK | Ailleurs
Station
Affichage
Infos & localisation pour CYUL (71627) | Aide pour décoder les METARs

Observations prises le 2021-09-23 à 13H00 UTC à MONTREAL INTL A, QB (CYUL)

Etat du ciel: partiellement nuageux.

Température: 22.0 Celsius

Point de rosée: 19.0 Celsius

Humidité relative: 83%

Indice Humidex 29.

Vents: Sud-est à 28 km/h ou 15 noeuds.

Pression au niveau moyen de la mer: 101.31 kilopascals.

Calage altimétrique: 101.29 kilopascals ou 29.91 pouces de mercure.

Visibilité horizontale: 30.00 milles terrestres ou 48.00 kilomètres.

Hauteur du plafond: 7620 mètres ( 25000 pieds ).

Observation METAR:

CYUL 231300Z 14015KT 30SM FEW090 FEW120 BKN250 22/19 A2991 RMK AC1AC1CI3 SLP131

DENSITY ALT 1100FT=